Flight Track Log - Related Links

Times and Time Zones

All times are in EDT time to prevent confusion due to time zone crossing. See the UAL752 flight status page for this flight to view local times or setup timezone preferences in your user account.

Time Position Orientation Groundspeed Altitude Reporting Facility
EDT Latitude Longitude Course Direction KTS MPH feet Rate Location/Type
Sat 12:05:54 PM 39.8833 -104.5500 90° East 206 237 7,200  Level Denver TRACON
Sat 12:07:00 PM 39.8667 -104.2261 90° East  Level FlightAware Approximate
Sat 12:07:07 PM 39.8744 -104.4439 96° East 251 289 8,900  Level Denver Center
Sat 12:08:00 PM 39.8667 -104.0788 90° East  Level FlightAware Approximate
Sat 12:08:09 PM 39.8739 -104.3267 90° East 298 343 10,300  Level Denver Center
Sat 12:09:00 PM 39.8667 -103.9315 90° East  Level FlightAware Approximate
Sat 12:09:11 PM 39.8731 -104.1978 90° East 355 409 11,000  Level Denver Center
Sat 12:10:00 PM 39.8704 -103.7850 72° East  Level FlightAware Approximate
Sat 12:10:13 PM 39.8719 -104.0483 91° East 381 438 13,200  Level Denver Center
Sat 12:11:00 PM 39.8834 -103.6404 90° East  Level FlightAware Approximate
Sat 12:11:15 PM 39.8714 -103.9033 90° East 404 465 14,600  Level Denver Center
Sat 12:12:29 PM 39.8819 -103.7428 85° East 412 474 16,300 1,500 Climbing Denver Center
Sat 12:13:31 PM 39.9028 -103.5711 81° East 418 481 18,000 1,500 Climbing Denver Center
Sat 12:14:33 PM 39.9194 -103.4156 82° East 433 498 19,400 1,306 Climbing Denver Center
Sat 12:15:35 PM 39.9378 -103.2583 81° East 439 505 20,700 1,248 Climbing Denver Center
Sat 12:16:38 PM 39.9586 -103.0619 82° East 456 525 22,000 1,152 Climbing Denver Center
Sat 12:17:40 PM 39.9764 -102.8942 82° East 467 537 23,100 968 Climbing Denver Center
Sat 12:18:42 PM 39.9914 -102.7244 83° East 471 542 24,000 726 Climbing Denver Center
Sat 12:19:44 PM 40.0089 -102.5522 82° East 480 552 24,600 823 Climbing Denver Center
Sat 12:20:46 PM 40.0272 -102.3547 83° East 491 565 25,700 838 Climbing Denver Center
Sat 12:22:00 PM 40.0419 -102.1858 83° East 490 564 26,500 706 Climbing Denver Center
Sat 12:23:02 PM 40.0628 -101.9575 83° East 498 573 27,300 968 Climbing Denver Center
Sat 12:24:04 PM 40.0808 -101.7561 83° East 500 575 28,500 1,016 Climbing Denver Center
Sat 12:25:06 PM 40.0922 -101.6144 84° East 494 568 29,400 919 Climbing Denver Center
Sat 12:26:08 PM 40.1114 -101.3897 84° East 491 565 30,400 919 Climbing Denver Center
Sat 12:27:10 PM 40.1253 -101.2211 84° East 490 564 31,300 919 Climbing Denver Center
Sat 12:28:12 PM 40.1419 -101.0264 84° East 484 557 32,300 1,008 Climbing Denver Center
Sat 12:29:15 PM 40.1536 -100.8594 85° East 485 558 33,400 1,008 Climbing Denver Center
Sat 12:30:17 PM 40.1697 -100.6683 84° East 479 551 34,400 774 Climbing Denver Center
Sat 12:31:19 PM 40.1819 -100.5069 84° East 472 543 35,000 290 Climbing Denver Center
Sat 12:32:21 PM 40.1942 -100.3431 84° East 475 547 35,000  Level Denver Center
Sat 12:33:23 PM 40.2081 -100.1544 84° East 470 541 35,000  Level Denver Center
Sat 12:34:25 PM 40.2206 -99.9914 84° East 473 544 35,000  Level Denver Center
Sat 12:35:27 PM 40.2314 -99.8172 85° East 471 542 35,000  Level Denver Center
Sat 12:36:29 PM 40.2467 -99.6125 84° East 472 543 35,000  Level Denver Center
Sat 12:37:31 PM 40.2575 -99.4431 85° East 470 541 35,000  Level Denver Center
Sat 12:38:33 PM 40.2697 -99.2731 85° East 471 542 35,000  Level Denver Center
Sat 12:39:39 PM 40.2797 -99.1061 85° East 469 540 35,000  Level Minneapolis Center
Sat 12:40:41 PM 40.2928 -98.9022 85° East 470 541 35,000  Level Minneapolis Center
Sat 12:41:55 PM 40.3019 -98.7303 86° East 473 544 35,000  Level Minneapolis Center
Sat 12:42:57 PM 40.3144 -98.5258 85° East 472 543 35,000  Level Minneapolis Center
Sat 12:44:00 PM 40.3250 -98.3544 85° East 474 545 35,000  Level Minneapolis Center
Sat 12:45:02 PM 40.3336 -98.1831 86° East 474 545 35,000  Level Minneapolis Center
Sat 12:46:04 PM 40.3458 -97.9789 85° East 471 542 35,000  Level Minneapolis Center
Sat 12:47:06 PM 40.3547 -97.8089 86° East 470 541 35,000  Level Minneapolis Center
Sat 12:48:08 PM 40.3631 -97.6411 86° East 466 536 35,000  Level Minneapolis Center
Sat 12:49:10 PM 40.3708 -97.4736 86° East 463 533 35,000  Level Minneapolis Center
Sat 12:50:12 PM 40.3800 -97.2931 86° East 464 534 35,000  Level Minneapolis Center
Sat 12:51:14 PM 40.3878 -97.1256 86° East 464 534 35,000  Level Minneapolis Center
Sat 12:52:16 PM 40.3958 -96.9575 86° East 464 534 35,000  Level Minneapolis Center
Sat 12:53:18 PM 40.4033 -96.7886 87° East 465 535 35,000  Level Minneapolis Center
Sat 12:54:20 PM 40.4117 -96.5856 87° East 466 536 35,000  Level Minneapolis Center
Sat 12:55:34 PM 40.4178 -96.4194 87° East 461 531 35,000  Level Minneapolis Center
Sat 12:56:37 PM 40.4264 -96.2200 87° East 459 528 35,000  Level Minneapolis Center
Sat 12:57:39 PM 40.4322 -96.0533 87° East 459 528 35,000  Level Minneapolis Center
Sat 12:58:41 PM 40.4397 -95.8861 87° East 461 531 35,000  Level Minneapolis Center
Sat 12:59:43 PM 40.4456 -95.7206 87° East 459 528 35,000  Level Minneapolis Center
Sat 01:00:45 PM 40.4522 -95.5222 87° East 458 527 35,000  Level Minneapolis Center
Sat 01:01:47 PM 40.4569 -95.3553 88° East 458 527 35,000 774 Level Minneapolis Center
Sat 01:02:49 PM 40.4619 -95.1925 88° East 456 525 36,600 968 Climbing Minneapolis Center
Sat 01:03:51 PM 40.4678 -95.0389 87° East 444 511 37,000 194 Climbing Minneapolis Center
Sat 01:04:53 PM 40.4719 -94.8856 88° East 430 495 37,000  Level Minneapolis Center
Sat 01:05:55 PM 40.4761 -94.6972 88° East 430 495 37,000  Level Minneapolis Center
Sat 01:06:57 PM 40.4797 -94.5503 88° East 423 487 37,000  Level Minneapolis Center
Sat 01:07:59 PM 40.4833 -94.3986 88° East 420 483 37,000  Level Minneapolis Center
Sat 01:09:01 PM 40.4869 -94.2464 88° East 420 483 37,000 48 Level Minneapolis Center
Sat 01:10:03 PM 40.4897 -94.0936 89° East 422 486 37,100  Climbing Minneapolis Center
Sat 01:11:05 PM 40.4925 -93.9125 89° East 419 482 37,000 -48 Descending Minneapolis Center
Sat 01:12:07 PM 40.4956 -93.7583 88° East 423 487 37,000  Level Minneapolis Center
Sat 01:13:09 PM 40.4981 -93.6053 89° East 424 488 37,000  Level Minneapolis Center
Sat 01:13:47 PM 40.5011 -93.5117 88° East 424 488 37,000  Level Chicago Center
Sat 01:14:17 PM 40.5011 -93.4203 90° East 423 487 37,000  Level Kansas City Center
Sat 01:15:19 PM 40.5022 -93.2675 89° East 422 486 37,000  Level Kansas City Center
Sat 01:16:21 PM 40.5058 -93.1153 88° East 421 484 37,000  Level Kansas City Center
Sat 01:17:23 PM 40.5086 -92.9458 89° East 415 478 37,000  Level Kansas City Center
Sat 01:18:25 PM 40.5106 -92.7950 89° East 425 489 37,000  Level Kansas City Center
Sat 01:19:27 PM 40.5133 -92.6411 89° East 430 495 37,000  Level Kansas City Center
Sat 01:20:29 PM 40.5133 -92.4844 90° East 430 495 37,000  Level Kansas City Center
Sat 01:21:31 PM 40.5136 -92.3028 90° East 428 493 37,000  Level Kansas City Center
Sat 01:22:33 PM 40.5139 -92.1464 90° East 429 494 37,000  Level Kansas City Center
Sat 01:23:05 PM 40.5139 -92.0536 90° East 429 494 37,000  Level Chicago Center
Sat 01:24:07 PM 40.5142 -91.8975 90° East 430 495 37,000  Level Chicago Center
Sat 01:24:37 PM 40.5136 -91.8347 91° East 431 496 37,000 65 Level Kansas City Center
Sat 01:25:39 PM 40.5131 -91.6781 90° East 432 497 37,100  Climbing Kansas City Center
Sat 01:26:41 PM 40.5133 -91.4894 90° East 433 498 37,000 -48 Descending Kansas City Center
Sat 01:27:43 PM 40.5122 -91.3333 90° East 432 497 37,000  Level Kansas City Center
Sat 01:28:46 PM 40.5114 -91.1653 90° East 433 498 37,000  Level Kansas City Center
Sat 01:29:17 PM 40.5114 -91.1014 90° East 435 501 37,000  Level Chicago Center
Sat 01:30:19 PM 40.5108 -90.9411 90° East 438 504 37,000  Level Chicago Center
Sat 01:31:21 PM 40.5092 -90.7500 91° East 438 504 37,000  Level Chicago Center
Sat 01:32:23 PM 40.5078 -90.5936 91° East 431 496 37,000  Level Chicago Center
Sat 01:33:25 PM 40.5058 -90.4369 91° East 431 496 37,000  Level Chicago Center
Sat 01:34:27 PM 40.5042 -90.2800 91° East 431 496 37,000  Level Chicago Center
Sat 01:35:29 PM 40.5008 -90.1272 92° East 432 497 37,000  Level Chicago Center
Sat 01:36:31 PM 40.4978 -89.9392 91° East 433 498 37,000  Level Chicago Center
Sat 01:37:33 PM 40.4947 -89.7831 91° East 433 498 37,000  Level Chicago Center
Sat 01:38:35 PM 40.4922 -89.6286 91° East 429 494 37,000  Level Chicago Center
Sat 01:39:36 PM 40.4900 -89.4725 91° East 431 496 37,000  Level Chicago Center
Sat 01:40:38 PM 40.4861 -89.3144 92° East 434 499 37,000  Level Chicago Center
Sat 01:41:40 PM 40.4836 -89.1258 91° East 432 497 37,000  Level Chicago Center
Sat 01:42:42 PM 40.4789 -88.9686 92° East 435 501 37,000  Level Chicago Center
Sat 01:43:44 PM 40.4758 -88.8167 91° East 425 489 37,000  Level Chicago Center
Sat 01:44:46 PM 40.4719 -88.6628 92° East 426 490 37,000  Level Chicago Center
Sat 01:45:48 PM 40.4686 -88.5106 92° East 421 484 37,000  Level Chicago Center
Sat 01:46:50 PM 40.4628 -88.3308 92° East 414 476 37,000  Level Chicago Center
Sat 01:47:52 PM 40.4594 -88.1789 92° East 417 480 37,000  Level Chicago Center
Sat 01:48:54 PM 40.4536 -88.0314 93° East 412 474 37,000  Level Chicago Center
Sat 01:49:56 PM 40.4500 -87.8814 92° East 414 476 37,000 48 Level Chicago Center
Sat 01:50:58 PM 40.4458 -87.7336 92° East 410 472 37,100  Climbing Chicago Center
Sat 01:52:00 PM 40.4397 -87.5594 93° East 403 464 37,000 -49 Descending Chicago Center
Sat 01:53:01 PM 40.4333 -87.4264 94° East 392 451 37,000  Level Chicago Center
Sat 01:54:03 PM 40.4289 -87.2853 92° East 389 448 37,000  Level Chicago Center
Sat 01:55:05 PM 40.4233 -87.1422 93° East 391 450 37,000  Level Chicago Center
Sat 01:56:07 PM 40.4169 -86.9992 93° East 393 452 37,000  Level Chicago Center
Sat 01:57:09 PM 40.4106 -86.8286 93° East 390 449 37,000  Level Chicago Center
Sat 01:58:11 PM 40.4031 -86.6864 94° East 390 449 37,000  Level Chicago Center
Sat 01:59:13 PM 40.3986 -86.5442 92° East 391 450 37,000  Level Chicago Center
Sat 02:00:15 PM 40.3914 -86.4006 94° East 394 453 37,000 48 Level Chicago Center
Sat 02:01:17 PM 40.3847 -86.2539 93° East 400 460 37,100  Climbing Chicago Center
Sat 02:02:19 PM 40.3775 -86.1061 94° East 404 465 37,000 -48 Descending Chicago Center
Sat 02:03:21 PM 40.3689 -85.9253 94° East 413 475 37,000  Level Chicago Center
Sat 02:04:23 PM 40.3606 -85.7692 94° East 427 491 37,000 48 Level Chicago Center
Sat 02:05:25 PM 40.3522 -85.6114 94° East 433 498 37,100 48 Climbing Chicago Center
Sat 02:06:27 PM 40.3436 -85.4539 94° East 434 499 37,100 -48 Level Chicago Center
Sat 02:07:29 PM 40.3347 -85.2967 94° East 432 497 37,000 -48 Descending Chicago Center
Sat 02:08:31 PM 40.3267 -85.1453 94° East 421 484 37,000  Level Chicago Center
Sat 02:09:33 PM 40.3172 -84.9939 95° East 418 481 37,000 -242 Level Chicago Center
Sat 02:10:35 PM 40.3067 -84.8128 94° East 417 480 36,500 -774 Descending Chicago Center
Sat 02:11:37 PM 40.2978 -84.6644 94° East 411 473 35,400 -726 Descending Chicago Center
Sat 02:12:39 PM 40.2889 -84.5178 94° East 406 467 35,000 -192 Descending Chicago Center
Sat 02:13:42 PM 40.2803 -84.3683 94° East 413 475 35,000  Level Chicago Center
Sat 02:14:44 PM 40.2678 -84.2058 96° East 421 484 35,000  Level Chicago Center
Sat 02:15:46 PM 40.2589 -84.0556 94° East 419 482 35,000  Level Chicago Center
Sat 02:16:53 PM 40.2461 -83.8719 95° East 421 484 35,000  Level Indianapolis Center
Sat 02:17:53 PM 40.2361 -83.7153 95° East 426 490 35,000 -48 Level Indianapolis Center
Sat 02:18:57 PM 40.2253 -83.5572 95° East 429 494 34,900  Descending Indianapolis Center
Sat 02:19:57 PM 40.2133 -83.3981 96° East 432 497 35,000 50 Climbing Indianapolis Center
Sat 02:20:58 PM 40.2017 -83.2389 95° East 433 498 35,000 -48 Level Indianapolis Center
Sat 02:22:01 PM 40.1897 -83.0819 96° East 428 493 34,900  Descending Indianapolis Center
Sat 02:23:01 PM 40.1769 -82.9233 96° East 433 498 35,000 50 Climbing Indianapolis Center
Sat 02:24:02 PM 40.1581 -82.7672 99° East 429 494 35,000 -48 Level Indianapolis Center
Sat 02:25:06 PM 40.1392 -82.6114 99° East 431 496 34,900  Descending Indianapolis Center
Sat 02:26:07 PM 40.1200 -82.4544 99° East 434 499 35,000 49 Climbing Indianapolis Center
Sat 02:27:08 PM 40.1011 -82.2967 99° East 435 501 35,000  Level Indianapolis Center
Sat 02:28:08 PM 40.0819 -82.1381 99° East 438 504 35,000 -50 Level Indianapolis Center
Sat 02:29:09 PM 40.0617 -81.9803 99° East 438 504 34,900 -48 Descending Indianapolis Center
Sat 02:30:13 PM 40.0422 -81.8219 99° East 439 505 34,900 48 Level Indianapolis Center
Sat 02:31:14 PM 40.0194 -81.6483 100° East 443 510 35,000 49 Climbing Indianapolis Center
Sat 02:32:15 PM 39.9986 -81.4883 100° East 444 511 35,000  Level Indianapolis Center
Sat 02:33:15 PM 39.9778 -81.3286 100° East 445 512 35,000  Level Indianapolis Center
Sat 02:34:19 PM 39.9550 -81.1572 100° East 444 511 35,000  Level Indianapolis Center
Sat 02:35:19 PM 39.9339 -80.9972 100° East 446 513 35,000  Level Indianapolis Center
Sat 02:36:20 PM 39.9117 -80.8375 100° East 446 513 35,000  Level Indianapolis Center
Sat 02:37:21 PM 39.8908 -80.6789 100° East 444 511 35,000  Level Indianapolis Center
Sat 02:38:22 PM 39.8681 -80.5192 100° East 445 512 35,000  Level Indianapolis Center
Sat 02:39:26 PM 39.8472 -80.3611 100° East 444 511 35,000  Level Indianapolis Center
Sat 02:40:26 PM 39.8242 -80.2025 101° East 446 513 35,000  Level Indianapolis Center
Sat 02:41:19 PM 39.8042 -80.0483 100° East 445 512 35,000  Level Washington Center
Sat 02:42:17 PM 39.7811 -79.8847 100° East 460 529 35,000  Level Washington Center
Sat 02:43:18 PM 39.7575 -79.7267 101° East 460 529 35,000 -1,537 Level Washington Center
Sat 02:44:18 PM 39.7339 -79.5608 100° East 460 529 31,900 -2,777 Descending Washington Center
Sat 02:45:19 PM 39.7100 -79.3975 101° East 455 524 29,400 -2,370 Descending Washington Center
Sat 02:46:17 PM 39.6875 -79.2428 101° East 449 517 27,200 -2,218 Descending Washington Center
Sat 02:47:18 PM 39.6631 -79.0878 102° East 442 509 25,000 -1,820 Descending Washington Center
Sat 02:48:19 PM 39.6339 -78.9436 105° East 424 488 23,500 -1,475 Descending Washington Center
Sat 02:49:16 PM 39.5997 -78.8153 109° East 419 482 22,100 -1,462 Descending Washington Center
Sat 02:50:18 PM 39.5700 -78.6767 106° East 408 470 20,600 -1,426 Descending Washington Center
Sat 02:51:18 PM 39.5422 -78.5436 105° East 396 456 19,200 -1,412 Descending Washington Center
Sat 02:52:17 PM 39.5119 -78.4078 106° East 391 450 17,800 -1,300 Descending Washington Center
Sat 02:53:18 PM 39.4836 -78.2831 106° East 380 437 16,600 -1,240 Descending Washington Center
Sat 02:54:18 PM 39.4550 -78.1558 106° East 374 430 15,300 -1,068 Descending Washington Center
Sat 02:55:16 PM 39.4369 -78.0289 100° East 367 422 14,500 -850 Descending Washington Center
Sat 02:56:18 PM 39.4394 -77.9000 89° East 356 410 13,600 -934 Descending Washington Center
Sat 02:57:18 PM 39.4419 -77.7708 89° East 351 404 12,600 -694 Descending Washington Center
Sat 02:58:19 PM 39.4442 -77.6394 89° East 351 404 12,200 -458 Descending Washington Center
Sat 02:59:16 PM 39.4442 -77.5158 90° East 351 404 11,700 -559 Descending Washington Center
Sat 03:00:17 PM 39.4461 -77.3842 89° East 351 404 11,100 -400 Descending Washington Center
Sat 03:01:01 PM 39.4500 -77.2833 87° East 361 415 11,000 -367 Descending Potomac TRACON
Sat 03:01:55 PM 39.4667 -77.1667 79° East 345 397 10,500 -850 Descending Potomac TRACON
Sat 03:03:01 PM 39.4667 -77.0333 90° East 306 352 9,300 -1,250 Descending Potomac TRACON
Sat 03:03:55 PM 39.4833 -76.9333 78° East 303 349 8,000 -1,474 Descending Potomac TRACON
Sat 03:04:55 PM 39.4833 -76.8333 90° East 294 338 6,500 -1,381 Descending Potomac TRACON
Sat 03:06:01 PM 39.4833 -76.7333 90° East 282 325 5,100 -810 Descending Potomac TRACON
Sat 03:07:01 PM 39.4667 -76.6333 102° East 284 327 4,800 -545 Descending Potomac TRACON
Sat 03:08:02 PM 39.4167 -76.5667 134° Southeast 261 300 4,000 -397 Descending Potomac TRACON
Sat 03:09:02 PM 39.3667 -76.5167 142° Southeast 223 257 4,000  Level Potomac TRACON
Sat 03:09:56 PM 39.3333 -76.4667 131° Southeast 221 254 4,000  Level Potomac TRACON
Sat 03:10:56 PM 39.2833 -76.4333 153° Southeast 191 220 4,000 -200 Level Potomac TRACON
Sat 03:11:56 PM 39.2333 -76.4167 166° South 193 222 3,600 -476 Descending Potomac TRACON
Sat 03:13:02 PM 39.1833 -76.4333 194° South 186 214 3,000 -650 Descending Potomac TRACON
Sat 03:13:56 PM 39.1500 -76.4667 218° Southwest 201 231 2,300 -526 Descending Potomac TRACON
Sat 03:14:56 PM 39.1667 -76.5333 288° West 193 222 2,000 -500 Descending Potomac TRACON
Sat 03:15:56 PM 39.1667 -76.5833 270° West 147 169 1,300 -762 Descending Potomac TRACON
Sat 03:17:02 PM 39.1667 -76.6333 270° West 145 167 400 -818 Descending Potomac TRACON

Login

Don't have an account? Register now (free) for customized features, flight alerts, and more!